KAFO/AFO METAR and TAF weather

Enter ICAO airport designator
Station Type Date Time Source
KAFO METAR 2022/10/01 07:15 UTC NOAA

KAFO 010715Z AUTO 00000KT 10SM OVC090 03/00 A3013 RMK AO2


Station Type Date Time Source
KAFO Decoded METAR 2022/10/01 07:15 UTC NOAA

Station name not available
Oct 01, 2022 - 03:15 AM EDT / 2022.10.01 0715 UTC
Wind: Calm:0
Visibility: 10 mile(s):0
Sky conditions: overcast
Temperature: 37 F (3 C)
Dew Point: 32 F (0 C)
Relative Humidity: 80%
Pressure (altimeter): 30.13 in. Hg (1020 hPa)
ob: KAFO 010715Z AUTO 00000KT 10SM OVC090 03/00 A3013 RMK AO2
cycle: 7

Station Type Date Time Source
KAFO TAF UTC NOAA

Error!

Example: see airport list